Terminal Aerodrome Forecast
Issued by NWS

Home | Current Version | Previous Version | Text Only | Print | Product List | Glossary On
Versions: 1 2 3 4 5 6 7 8 9 10 11 12 13
000
FTUS44 KOUN 221135
TAFWWR
TAF
KWWR 221135Z 2212/2312 34017G25KT P6SM -RA SCT008 BKN019
     FM221300 32017G26KT P6SM SCT015 BKN050
      TEMPO 2213/2214 BKN025
     FM230000 29008KT P6SM SKC=

USA.gov is the U.S. government's official web portal to all federal, state and local government web resources and services.